• Join FlightAware (Why Join?)
  • Login
  • US Flag 
12:54AM EDT


 

Airport Tracker/Info


-or-


 

Live Flight TrackerFlight Track Log ✈ UAL139 ✈ 27-Jun-2013 ✈ KDEN - RJAA / NRT

Flight Track Log - Related Links

Times and Time Zones

All times are in EDT time to prevent confusion due to time zone crossing. See the UAL139 flight status page for this flight to view local times or setup timezone preferences in your user account.

Time Position Orientation Groundspeed Altitude Reporting Facility
EDT Latitude Longitude Course Direction KTS MPH feet Rate Location/Type
02:39PM 39.8570 -104.6760 309° West 2 2  Level FlightAware
02:43PM 39.8520 -104.6900 270° West 16 18 540 Level FlightAware
02:44PM 39.8520 -104.6920 270° West 14 16 1,140 Level FlightAware
02:45PM 39.8520 -104.6930 270° West 21 24 1,380 Level FlightAware
02:45PM 39.8520 -104.6940 270° West 11 13 1,560 Level FlightAware
02:46PM 39.8520 -104.6950 270° West 2 2 1,920 Level FlightAware
02:47PM 39.8520 -104.6970 270° West 17 20 2,340 Level FlightAware
02:47PM 39.8580 -104.6970 360° North 40 46 4,440 Level FlightAware
02:48PM 39.8770 -104.6960 North 187 215 5,000 10,080 Climbing FlightAware
02:48PM 39.8943 -104.6960 360° North 208 239 5,400 1,740 Climbing FlightAware ADS-B
02:48PM 39.9105 -104.6960 360° North 214 246 6,000 2,400 Climbing FlightAware ADS-B
02:48PM 39.9147 -104.6960 360° North 212 244 6,200 3,000 Climbing FlightAware ADS-B
02:48PM 39.9181 -104.6970 347° North 211 243 6,400 1,800 Climbing FlightAware ADS-B
02:49PM 39.9277 -104.6990 351° North 219 252 6,600 720 Climbing FlightAware ADS-B
02:49PM 39.9437 -104.7030 349° North 242 278 6,700 1,020 Climbing FlightAware ADS-B
02:49PM 39.9582 -104.7070 348° North 253 291 7,100 1,800 Climbing FlightAware ADS-B
02:49PM 39.9673 -104.7100 346° North 259 298 7,300 1,320 Climbing FlightAware ADS-B
02:49PM 39.9842 -104.7140 350° North 273 314 7,600 1,500 Climbing FlightAware ADS-B
02:50PM 40.0008 -104.7190 347° North 280 322 8,000 1,980 Climbing FlightAware ADS-B
02:50PM 40.0211 -104.7250 347° North 283 326 8,600 2,160 Climbing FlightAware ADS-B
02:50PM 40.0381 -104.7300 347° North 287 330 9,100 2,280 Climbing FlightAware ADS-B
02:50PM 40.0448 -104.7320 347° North 288 331 9,300 2,460 Climbing FlightAware ADS-B
02:50PM 40.0546 -104.7360 343° North 289 333 9,600 2,460 Climbing FlightAware ADS-B
02:50PM 40.0669 -104.7410 343° North 292 336 10,000 1,320 Climbing FlightAware ADS-B
02:51PM 40.1078 -104.7600 340° North 322 371 10,500 1,140 Climbing FlightAware ADS-B
02:51PM 40.1521 -104.7810 340° North 347 399 11,200 1,740 Climbing FlightAware ADS-B
02:52PM 40.1995 -104.8030 340° North 354 407 12,300 2,340 Climbing FlightAware ADS-B
02:52PM 40.2465 -104.8250 340° North 356 410 13,600 2,400 Climbing FlightAware ADS-B
02:53PM 40.3019 -104.8510 340° North 357 411 15,000 2,220 Climbing FlightAware ADS-B
02:54PM 40.3495 -104.8730 341° North 362 417 16,100 2,280 Climbing FlightAware ADS-B
02:54PM 40.3972 -104.8950 341° North 364 419 17,300 2,040 Climbing FlightAware ADS-B
02:55PM 40.4462 -104.9180 340° North 371 427 18,200 1,800 Climbing FlightAware ADS-B
02:55PM 40.4996 -104.9430 340° North 380 437 19,200 1,860 Climbing FlightAware ADS-B
02:56PM 40.5508 -104.9670 340° North 383 441 20,200 1,560 Climbing FlightAware ADS-B
02:56PM 40.6069 -104.9940 340° North 396 456 20,900 1,560 Climbing FlightAware ADS-B
02:57PM 40.6920 -105.0340 340° North 405 466 22,400 1,740 Climbing FlightAware
02:57PM 40.7077 -105.0410 341° North 406 467 22,600 1,260 Climbing FlightAware ADS-B
02:57PM 40.7420 -105.0580 339° North 407 468 23,000 1,020 Climbing FlightAware ADS-B
02:58PM 40.7495 -105.0620 338° Northwest 405 466 23,000  Level FlightAware ADS-B
02:58PM 40.7542 -105.0650 334° Northwest 404 465 23,000  Level FlightAware ADS-B
02:58PM 40.7703 -105.0780 329° Northwest 403 464 23,000 480 Level FlightAware ADS-B
02:58PM 40.7909 -105.0970 325° Northwest 404 465 23,200 1,260 Climbing FlightAware ADS-B
02:59PM 40.8371 -105.1500 319° Northwest 408 470 24,000 1,560 Climbing FlightAware ADS-B
03:00PM 40.9325 -105.2570 320° Northwest 416 479 25,800 1,620 Climbing FlightAware ADS-B
03:00PM 40.9786 -105.3100 319° Northwest 416 479 26,700 1,380 Climbing FlightAware ADS-B
03:01PM 41.0836 -105.4290 320° Northwest 418 481 28,200 1,200 Climbing FlightAware ADS-B
03:02PM 41.1410 -105.4950 319° Northwest 437 503 28,900 1,140 Climbing FlightAware
03:03PM 41.1990 -105.5620 319° Northwest 443 510 29,700 1,080 Climbing FlightAware
03:03PM 41.2680 -105.6410 319° Northwest 450 518 30,400 960 Climbing FlightAware
03:04PM 41.3320 -105.7140 319° Northwest 456 525 31,100 1,080 Climbing FlightAware
03:05PM 41.4010 -105.7890 321° Northwest 462 532 31,900 1,140 Climbing FlightAware
03:05PM 41.4790 -105.8690 322° Northwest 465 535 32,800 1,020 Climbing FlightAware
03:06PM 41.5410 -105.9340 322° Northwest 469 540 33,300 840 Climbing FlightAware
03:07PM 41.6190 -106.0170 322° Northwest 474 545 34,000 1,080 Climbing FlightAware
03:08PM 41.6930 -106.0970 321° Northwest 469 540 35,000 780 Climbing FlightAware
03:08PM 41.7680 -106.1770 322° Northwest 469 540 35,300 600 Climbing FlightAware
03:09PM 41.8620 -106.2780 321° Northwest 470 541 36,000 300 Climbing FlightAware
03:10PM 41.9690 -106.3930 321° Northwest 470 541 36,000  Level FlightAware
03:11PM 42.0190 -106.4480 321° Northwest 470 541 36,000  Level FlightAware
03:12PM 42.0880 -106.5230 321° Northwest 470 541 36,000  Level FlightAware
03:12PM 42.1440 -106.5850 321° Northwest 470 541 36,000  Level FlightAware
03:13PM 42.1980 -106.6430 321° Northwest 470 541 36,000  Level FlightAware
03:14PM 42.2640 -106.7150 321° Northwest 470 541 36,000  Level FlightAware
03:15PM 42.3944 -106.8542 321° Northwest 471 542 36,000  Level Salt Lake Center
03:20PM 42.7760 -107.2790 321° Northwest 470 541 36,000  Level FlightAware
03:21PM 43.0125 -107.5431 321° Northwest 463 533 36,000  Level Salt Lake Center
03:22PM 43.1239 -107.6694 320° Northwest 466 536 36,000  Level Salt Lake Center
03:23PM 43.2197 -107.7794 320° Northwest 468 539 36,000 -180 Level Salt Lake Center
03:24PM 43.3294 -107.9050 320° Northwest 464 534 35,700 -780 Descending Salt Lake Center
03:25PM 43.4250 -108.0128 321° Northwest 465 535 34,500 -840 Descending Salt Lake Center
03:26PM 43.5361 -108.1406 320° Northwest 466 536 34,000 -300 Descending Salt Lake Center
03:27PM 43.6303 -108.2517 320° Northwest 465 535 34,000  Level Salt Lake Center
03:28PM 43.7256 -108.3622 320° Northwest 467 537 34,000  Level Salt Lake Center
03:29PM 43.8411 -108.4958 320° Northwest 464 534 34,000  Level Salt Lake Center
03:30PM 43.9358 -108.6061 320° Northwest 463 533 34,000  Level Salt Lake Center
03:31PM 44.0450 -108.7353 320° Northwest 463 533 34,000  Level Salt Lake Center
03:32PM 44.1400 -108.8483 320° Northwest 466 536 34,000  Level Salt Lake Center
03:33PM 44.2350 -108.9597 320° Northwest 467 537 34,000  Level Salt Lake Center
03:34PM 44.3450 -109.0917 319° Northwest 467 537 34,000  Level Salt Lake Center
03:35PM 44.4386 -109.2047 319° Northwest 465 535 34,000  Level Salt Lake Center
03:36PM 44.5475 -109.3364 319° Northwest 464 534 34,000  Level Salt Lake Center
03:37PM 44.6400 -109.4486 319° Northwest 461 531 34,000  Level Salt Lake Center
03:38PM 44.7486 -109.5808 319° Northwest 464 534 34,000  Level Salt Lake Center
03:39PM 44.8419 -109.6956 319° Northwest 465 535 34,000  Level Salt Lake Center
03:40PM 44.9517 -109.8278 320° Northwest 466 536 34,000  Level Salt Lake Center
03:41PM 45.0444 -109.9436 319° Northwest 466 536 34,000  Level Salt Lake Center
03:42PM 45.1536 -110.0797 319° Northwest 468 539 34,000  Level Salt Lake Center
03:44PM 45.2467 -110.1936 319° Northwest 466 536 34,000  Level Salt Lake Center
03:45PM 45.3514 -110.3264 318° Northwest 458 527 34,000  Level Salt Lake Center
03:46PM 45.4453 -110.4450 318° Northwest 469 540 34,000  Level Salt Lake Center
03:47PM 45.5528 -110.5811 318° Northwest 466 536 34,000  Level Salt Lake Center
03:48PM 45.6378 -110.6864 319° Northwest 456 525 34,000  Level Salt Lake Center
03:49PM 45.7333 -110.8081 318° Northwest 460 529 34,000  Level Salt Lake Center
03:50PM 45.8478 -110.9522 319° Northwest 464 534 34,000  Level Salt Lake Center
03:51PM 45.9422 -111.0742 318° Northwest 468 539 34,000  Level Salt Lake Center
03:52PM 46.0347 -111.1981 317° Northwest 462 532 34,000  Level Salt Lake Center
03:53PM 46.1289 -111.3217 318° Northwest 461 531 34,000  Level Salt Lake Center
03:54PM 46.2411 -111.4708 317° Northwest 457 526 34,000  Level Salt Lake Center
03:55PM 46.3361 -111.5950 318° Northwest 461 531 34,000  Level Salt Lake Center
03:56PM 46.4308 -111.7214 317° Northwest 464 534 34,000  Level Salt Lake Center
03:57PM 46.5200 -111.8392 318° Northwest 460 529 34,000  Level Salt Lake Center
03:58PM 46.6144 -111.9656 317° Northwest 460 529 34,000  Level Salt Lake Center
03:59PM 46.7294 -112.1136 319° Northwest 459 528 34,000  Level Salt Lake Center
04:00PM 46.8244 -112.2361 319° Northwest 456 525 34,000 -60 Level Salt Lake Center
04:01PM 46.9189 -112.3600 318° Northwest 456 525 33,900  Descending Salt Lake Center
04:02PM 47.0142 -112.4864 318° Northwest 459 528 34,000  Climbing Salt Lake Center
04:03PM 47.1094 -112.6128 318° Northwest 462 532 34,000  Level Salt Lake Center
04:04PM 47.2042 -112.7375 318° Northwest 458 527 34,000  Level Salt Lake Center
04:05PM 47.2975 -112.8636 318° Northwest 457 526 34,000  Level Salt Lake Center
04:06PM 47.3994 -112.9992 318° Northwest 458 527 34,000  Level Salt Lake Center
04:12PM 47.9630 -113.7710 318° Northwest 458 527 34,000  Level FlightAware
04:13PM 48.0250 -113.8580 317° Northwest 450 518 34,000  Level FlightAware
04:14PM 48.0960 -113.9580 317° Northwest 451 519 34,000  Level FlightAware
04:14PM 48.1640 -114.0520 317° Northwest 449 517 34,000  Level FlightAware
04:15PM 48.2190 -114.1300 317° Northwest 451 519 34,000  Level FlightAware
04:16PM 48.2880 -114.2280 317° Northwest 453 521 34,000  Level FlightAware
04:16PM 48.3550 -114.3230 317° Northwest 454 522 34,000  Level FlightAware
04:17PM 48.4190 -114.4140 317° Northwest 454 522 34,000  Level FlightAware
04:18PM 48.5260 -114.5660 317° Northwest 451 519 34,000  Level FlightAware
04:19PM 48.5940 -114.6650 316° Northwest 449 517 34,000  Level FlightAware
04:20PM 48.6560 -114.7540 317° Northwest 451 519 34,000  Level FlightAware
04:20PM 48.7160 -114.8410 316° Northwest 451 519 34,000  Level FlightAware
04:21PM 48.7760 -114.9280 316° Northwest 452 520 34,000  Level FlightAware
04:22PM 48.8510 -115.0380 316° Northwest 450 518 34,000  Level FlightAware
04:22PM 48.9050 -115.1170 316° Northwest 450 518 34,000  Level FlightAware
04:23PM 48.9710 -115.2140 316° Northwest 449 517 34,000  Level FlightAware
04:24PM 49.0370 -115.3110 316° Northwest 449 517 34,000  Level FlightAware
04:25PM 49.1130 -115.4240 316° Northwest 447 514 34,000  Level FlightAware
04:25PM 49.1790 -115.5220 316° Northwest 446 513 34,000  Level FlightAware
04:26PM 49.2440 -115.6190 316° Northwest 449 517 34,000  Level FlightAware
04:27PM 49.3050 -115.7110 315° West 449 517 34,000  Level FlightAware
04:28PM 49.3850 -115.8330 315° West 447 514 34,000  Level FlightAware
04:29PM 49.4730 -115.9640 316° Northwest 439 505 34,000  Level FlightAware
04:29PM 49.5320 -116.0550 315° West 441 507 34,000  Level FlightAware
04:30PM 49.5860 -116.1440 313° West 442 509 34,000  Level FlightAware
04:31PM 49.6460 -116.2520 311° West 443 510 34,000  Level FlightAware
04:31PM 49.6940 -116.3370 311° West 443 510 34,000  Level FlightAware
04:32PM 49.7610 -116.4560 311° West 443 510 34,000  Level FlightAware
04:33PM 49.8150 -116.5540 311° West 441 507 34,000  Level FlightAware
04:34PM 49.8680 -116.6480 311° West 440 506 34,000  Level FlightAware
04:34PM 49.9260 -116.7540 310° West 435 501 34,000  Level FlightAware
04:35PM 49.9690 -116.8320 311° West 439 505 34,000  Level FlightAware
04:36PM 50.0350 -116.9520 311° West 438 504 34,000  Level FlightAware
04:36PM 50.0920 -117.0570 310° West 435 501 34,000  Level FlightAware
04:37PM 50.1490 -117.1620 310° West 437 503 34,000  Level FlightAware
04:38PM 50.1930 -117.2430 310° West 444 511 34,000  Level FlightAware
04:39PM 50.2670 -117.3800 310° West 444 511 34,000  Level FlightAware
04:40PM 50.3360 -117.5100 310° West 445 512 34,000  Level FlightAware
04:40PM 50.3870 -117.6100 309° West 445 512 34,000  Level FlightAware
04:42PM 50.5160 -117.8480 310° West 444 511 34,000  Level FlightAware
04:43PM 50.5640 -117.9380 310° West 444 511 34,000  Level FlightAware
04:43PM 50.6070 -118.0210 309° West 444 511 34,000  Level FlightAware
04:48PM 50.9980 -118.7760 310° West 442 509 34,000  Level FlightAware
04:49PM 51.0560 -118.8890 309° West 439 505 34,000  Level FlightAware
04:49PM 51.1070 -118.9890 309° West 437 503 34,000  Level FlightAware
04:50PM 51.1730 -119.1200 309° West 438 504 34,000  Level FlightAware
04:52PM 51.3060 -119.3870 309° West 436 502 34,000  Level FlightAware
04:53PM 51.3600 -119.4950 309° West 436 502 34,000  Level FlightAware
04:53PM 51.3960 -119.5690 308° West 436 502 34,000  Level FlightAware
04:54PM 51.4810 -119.7410 308° West 433 498 34,000  Level FlightAware
04:56PM 51.5840 -119.9520 308° West 432 497 34,000  Level FlightAware
04:56PM 51.6340 -120.0540 308° West 431 496 34,000  Level FlightAware
04:57PM 51.6870 -120.1630 308° West 429 494 34,000  Level FlightAware
04:58PM 51.7380 -120.2700 308° West 429 494 34,000  Level FlightAware
04:59PM 51.7890 -120.3760 308° West 427 491 34,000  Level FlightAware
04:59PM 51.8340 -120.4690 308° West 426 490 34,000  Level FlightAware
05:03PM 52.0490 -120.9270 307° West 425 489 34,000  Level FlightAware
05:04PM 52.0970 -121.0320 307° West 425 489 34,000  Level FlightAware
05:04PM 52.2010 -121.2520 308° West 436 502 34,000  Level FlightAware
05:05PM 52.2470 -121.3510 307° West 438 504 34,000  Level FlightAware
05:06PM 52.3010 -121.4680 307° West 442 509 34,000  Level FlightAware
05:06PM 52.3600 -121.5960 307° West 443 510 34,000  Level FlightAware
05:07PM 52.4040 -121.6930 307° West 443 510 34,000  Level FlightAware
05:08PM 52.4590 -121.8140 307° West 444 511 34,000  Level FlightAware
05:09PM 52.5090 -121.9250 307° West 441 507 34,000  Level FlightAware
05:09PM 52.5620 -122.0420 307° West 441 507 34,000  Level FlightAware
05:10PM 52.6050 -122.1390 306° West 440 506 34,000  Level FlightAware
05:11PM 52.6530 -122.2460 307° West 440 506 34,000  Level FlightAware
05:11PM 52.7020 -122.3570 306° West 440 506 34,000  Level FlightAware
05:12PM 52.7620 -122.4910 307° West 443 510 34,000  Level FlightAware
05:13PM 52.8100 -122.6010 306° West 444 511 34,000  Level FlightAware
05:13PM 52.8650 -122.7260 306° West 445 512 34,000  Level FlightAware
05:14PM 52.9150 -122.8400 306° West 447 514 34,000  Level FlightAware
05:15PM 52.9730 -122.9750 306° West 450 518 34,000  Level FlightAware
05:16PM 53.0260 -123.0980 306° West 457 526 34,000  Level FlightAware
05:16PM 53.0850 -123.2350 306° West 458 527 34,000  Level FlightAware
05:17PM 53.1370 -123.3560 306° West 462 532 34,000  Level FlightAware
05:18PM 53.1890 -123.4790 305° West 468 539 34,000  Level FlightAware
05:19PM 53.2410 -123.6030 305° West 466 536 34,000  Level FlightAware
05:19PM 53.2920 -123.7240 305° West 468 539 34,000  Level FlightAware
05:20PM 53.3180 -123.7850 306° West 472 543 34,000  Level FlightAware
05:20PM 53.3830 -123.9400 305° West 479 551 34,000  Level FlightAware
05:21PM 53.4360 -124.0700 304° West 479 551 34,000  Level FlightAware
05:22PM 53.4830 -124.1810 305° West 483 556 34,000  Level FlightAware
05:23PM 53.5370 -124.3150 304° West 487 560 34,000  Level FlightAware
05:23PM 53.5890 -124.4410 305° West 486 559 34,000  Level FlightAware
05:24PM 53.6440 -124.5760 305° West 486 559 34,000  Level FlightAware
05:25PM 53.7010 -124.7160 305° West 490 564 34,000  Level FlightAware
05:25PM 53.7570 -124.8560 304° West 492 566 34,000  Level FlightAware
05:26PM 53.8080 -124.9820 304° West 495 570 34,000  Level FlightAware
05:27PM 53.8590 -125.1120 304° West 494 568 34,000  Level FlightAware
05:27PM 53.9150 -125.2510 304° West 497 572 34,000  Level FlightAware
05:28PM 53.9710 -125.3940 304° West 498 573 34,000  Level FlightAware
05:29PM 54.0220 -125.5250 304° West 498 573 34,000  Level FlightAware
05:30PM 54.0760 -125.6640 304° West 503 579 34,000  Level FlightAware
05:30PM 54.1270 -125.7950 304° West 507 583 34,000  Level FlightAware
05:31PM 54.1840 -125.9420 304° West 513 590 34,000  Level FlightAware
05:32PM 54.2380 -126.0840 303° West 513 590 34,000  Level FlightAware
05:32PM 54.2880 -126.2150 303° West 513 590 34,000  Level FlightAware
05:33PM 54.3500 -126.3780 303° West 512 589 34,000  Level FlightAware
05:34PM 54.3990 -126.5090 303° West 513 590 34,000  Level FlightAware
05:34PM 54.4560 -126.6530 304° West 511 588 34,000  Level FlightAware
05:35PM 54.5190 -126.7800 311° West 516 594 34,000  Level FlightAware
05:36PM 54.5870 -126.9150 311° West 516 594 34,000  Level FlightAware
05:37PM 54.6550 -127.0490 311° West 518 596 34,000  Level FlightAware
05:37PM 54.7190 -127.1740 312° West 518 596 34,000  Level FlightAware
05:38PM 54.7810 -127.2980 311° West 517 595 34,000  Level FlightAware
05:39PM 54.8500 -127.4360 311° West 518 596 34,000  Level FlightAware
05:40PM 54.9430 -127.6290 310° West 518 596 34,000  Level FlightAware
05:40PM 54.9890 -127.7240 310° West 518 596 34,000  Level FlightAware
05:41PM 55.0900 -127.9240 311° West 519 597 34,000  Level FlightAware
05:42PM 55.1470 -128.0400 311° West 520 598 34,000  Level FlightAware
05:43PM 55.2080 -128.1680 310° West 518 596 34,000  Level FlightAware
05:43PM 55.2690 -128.2940 310° West 518 596 34,000  Level FlightAware
05:44PM 55.3160 -128.3930 310° West 518 596 34,000  Level FlightAware
05:45PM 55.3790 -128.5250 310° West 518 596 34,000  Level FlightAware
05:45PM 55.4240 -128.6210 310° West 518 596 34,000  Level FlightAware
05:46PM 55.4870 -128.7530 310° West 518 596 34,000  Level FlightAware
05:47PM 55.5360 -128.8550 310° West 518 596 34,000  Level FlightAware
05:48PM 55.6170 -129.0260 310° West 518 596 34,000  Level FlightAware
05:48PM 55.6630 -129.1230 310° West 518 596 34,000  Level FlightAware
05:49PM 55.7240 -129.2530 310° West 518 596 34,000  Level FlightAware
05:50PM 55.7710 -129.3530 310° West 518 596 34,000  Level FlightAware
05:51PM 55.8330 -129.4830 310° West 518 596 34,000  Level FlightAware
05:51PM 55.8810 -129.5860 310° West 518 596 34,000  Level FlightAware
05:52PM 55.9470 -129.7250 310° West 518 596 34,000  Level FlightAware
05:53PM 56.1667 -130.3000 310° West 550 633 34,000  Level Vancouver Center
05:54PM 56.2667 -130.5167 310° West 550 633 34,000  Level Vancouver Center
05:55PM 56.3667 -130.7167 312° West 550 633 34,000  Level Vancouver Center
05:56PM 56.4667 -130.9500 308° West 550 633 34,000  Level Vancouver Center
05:56PM 56.5000 -131.0167 312° West 550 633 34,000  Level Anchorage Center
05:57PM 56.5833 -131.2167 307° West 540 621 34,000  Level Anchorage Center
05:58PM 56.6333 -131.3833 299° West 530 610 34,000  Level Vancouver Center
05:59PM 56.7333 -131.6167 308° West 550 633 34,000  Level Vancouver Center
05:59PM 56.7667 -131.6500 331° Northwest 540 621 34,000  Level Anchorage Center
06:00PM 56.8500 -131.8333 310° West 530 610 34,000  Level Anchorage Center
06:03PM 57.0667 -132.3667 307° West 570 656 34,000  Level Anchorage Center
06:04PM 57.1500 -132.5833 305° West 530 610 34,000  Level Anchorage Center
06:05PM 57.2333 -132.8000 305° West 540 621 34,000  Level Anchorage Center
06:06PM 57.3333 -133.0333 309° West 540 621 34,000  Level Anchorage Center
06:07PM 57.4167 -133.2500 306° West 530 610 34,000  Level Anchorage Center
06:08PM 57.5000 -133.4667 306° West 530 610 34,000  Level Anchorage Center
06:09PM 57.5833 -133.7000 304° West 530 610 34,000  Level Anchorage Center
06:10PM 57.6667 -133.9167 306° West 530 610 34,000  Level Anchorage Center
06:11PM 57.7667 -134.1333 311° West 530 610 34,000  Level Anchorage Center
06:12PM 57.8500 -134.3667 304° West 520 598 34,000  Level Anchorage Center
06:13PM 57.9333 -134.5833 306° West 520 598 34,000  Level Anchorage Center
06:14PM 58.0000 -134.8000 300° West 520 598 34,000  Level Anchorage Center
06:15PM 58.0833 -135.0333 304° West 520 598 34,000  Level Anchorage Center
06:16PM 58.1667 -135.2500 306° West 520 598 34,000  Level Anchorage Center
06:17PM 58.2500 -135.4833 304° West 520 598 34,000  Level Anchorage Center
06:18PM 58.3167 -135.7167 299° West 520 598 34,000  Level Anchorage Center
06:19PM 58.4000 -135.9500 304° West 520 598 34,000  Level Anchorage Center
06:20PM 58.4667 -136.1833 299° West 520 598 34,000  Level Anchorage Center
06:21PM 58.5500 -136.4333 303° West 510 587 34,000  Level Anchorage Center
06:22PM 58.6333 -136.6667 305° West 510 587 34,000  Level Anchorage Center
06:23PM 58.7000 -136.9000 299° West 520 598 34,000  Level Anchorage Center
06:24PM 58.7833 -137.1333 305° West 520 598 34,000  Level Anchorage Center
06:25PM 58.8500 -137.3833 297° West 510 587 34,000  Level Anchorage Center
06:27PM 59.0000 -137.8667 301° West 520 598 34,000  Level Anchorage Center
06:28PM 59.0667 -138.1000 299° West 510 587 34,000  Level Anchorage Center
06:29PM 59.1333 -138.3500 298° West 510 587 34,000  Level Anchorage Center
06:30PM 59.2000 -138.5833 299° West 510 587 34,000  Level Anchorage Center
06:31PM 59.2833 -138.8333 303° West 510 587 34,000  Level Anchorage Center
06:32PM 59.3500 -139.0667 299° West 510 587 34,000  Level Anchorage Center
06:33PM 59.4167 -139.3167 298° West 510 587 34,000  Level Anchorage Center
06:34PM 59.4833 -139.5500 299° West 510 587 34,000  Level Anchorage Center
06:36PM 59.6167 -140.0833 296° West 510 587 34,000  Level Anchorage Center
06:37PM 59.6833 -140.3333 298° West 500 575 34,000  Level Anchorage Center
06:38PM 59.7333 -140.5833 292° West 500 575 34,000  Level Anchorage Center
06:40PM 59.8296 -140.9858 296° West  Level FlightAware Approximate
06:41PM 59.9167 -141.3333 296° West 500 575 34,000  Level Anchorage Center
06:42PM 59.9833 -141.5833 298° West 500 575 34,000  Level Anchorage Center
06:43PM 60.0333 -141.8500 291° West 500 575 34,000  Level Anchorage Center
06:44PM 60.0833 -142.1000 292° West 500 575 34,000  Level Anchorage Center
06:45PM 60.1500 -142.3500 298° West 500 575 34,000  Level Anchorage Center
06:46PM 60.2000 -142.6000 292° West 490 564 34,000  Level Anchorage Center
06:47PM 60.2667 -142.8500 298° West 500 575 34,000  Level Anchorage Center
06:48PM 60.3167 -143.1167 291° West 490 564 34,000  Level Anchorage Center
06:49PM 60.3667 -143.3833 291° West 500 575 34,000  Level Anchorage Center
06:50PM 60.4333 -143.6333 298° West 490 564 34,000  Level Anchorage Center
06:51PM 60.4833 -143.8833 292° West 490 564 34,000  Level Anchorage Center
06:52PM 60.5333 -144.1500 291° West 490 564 34,000  Level Anchorage Center
06:53PM 60.5833 -144.4000 292° West 490 564 34,000  Level Anchorage Center
06:54PM 60.6333 -144.6667 291° West 490 564 34,000  Level Anchorage Center
06:55PM 60.6833 -144.9167 292° West 490 564 34,000  Level Anchorage Center
06:56PM 60.7333 -145.1833 291° West 480 552 34,000  Level Anchorage Center
06:57PM 60.7833 -145.4333 292° West 500 575 34,000  Level Anchorage Center
06:58PM 60.8333 -145.7000 291° West 490 564 34,000  Level Anchorage Center
06:59PM 60.8833 -145.9667 291° West 490 564 34,000  Level Anchorage Center
07:00PM 60.9333 -146.2167 292° West 490 564 34,000  Level Anchorage Center
07:05PM 61.2060 -147.7010 292° West 488 562 34,000  Level FlightAware
07:06PM 61.2360 -147.8770 290° West 486 559 34,000  Level FlightAware
07:07PM 61.2650 -148.0510 289° West 487 560 34,000  Level FlightAware
07:07PM 61.2950 -148.2310 289° West 486 559 34,000  Level FlightAware
07:08PM 61.3320 -148.4520 289° West 485 558 34,000  Level FlightAware
07:09PM 61.3600 -148.6230 289° West 485 558 34,000  Level FlightAware
07:10PM 61.3880 -148.8010 288° West 483 556 34,000  Level FlightAware
07:10PM 61.4200 -149.0020 288° West 484 557 34,000  Level FlightAware
07:11PM 61.4470 -149.1690 289° West 483 556 34,000  Level FlightAware
07:12PM 61.4890 -149.4390 288° West 479 551 34,000  Level FlightAware
07:13PM 61.5130 -149.5960 288° West 480 552 34,000  Level FlightAware
07:13PM 61.5420 -149.7890 288° West 480 552 34,000  Level FlightAware
07:14PM 61.5700 -149.9660 288° West 481 554 34,000  Level FlightAware
07:15PM 61.6060 -150.1660 291° West 482 555 34,000  Level FlightAware
07:16PM 61.6460 -150.3810 291° West 481 554 34,000  Level FlightAware
07:16PM 61.6860 -150.6020 291° West 480 552 34,000  Level FlightAware
07:17PM 61.7170 -150.7740 291° West 479 551 34,000  Level FlightAware
07:18PM 61.7490 -150.9520 291° West 478 550 34,000  Level FlightAware
07:19PM 61.7820 -151.1410 290° West 476 548 34,000  Level FlightAware
07:19PM 61.8140 -151.3210 291° West 476 548 34,000  Level FlightAware
07:20PM 61.8470 -151.5100 290° West 475 547 34,000  Level FlightAware
07:21PM 61.8760 -151.6820 290° West 474 545 34,000  Level FlightAware
07:21PM 61.9090 -151.8740 290° West 474 545 34,000  Level FlightAware
07:22PM 61.9390 -152.0520 290° West 477 549 34,000  Level FlightAware
07:23PM 61.9830 -152.3140 290° West 478 550 34,000  Level FlightAware
07:24PM 62.0070 -152.4570 290° West 478 550 34,000  Level FlightAware
07:24PM 62.0300 -152.5930 290° West 478 550 34,000  Level FlightAware
07:25PM 62.0610 -152.7740 290° West 478 550 34,000  Level FlightAware
07:26PM 62.0840 -152.9090 290° West 478 550 34,000  Level FlightAware
07:26PM 62.1150 -153.0910 290° West 478 550 34,000  Level FlightAware
07:27PM 62.1390 -153.2310 290° West 478 550 34,000  Level FlightAware
07:28PM 62.1690 -153.4120 290° West 478 550 34,000  Level FlightAware
07:28PM 62.1930 -153.5480 291° West 478 550 34,000  Level FlightAware
07:29PM 62.2230 -153.7300 290° West 478 550 34,000  Level FlightAware
07:30PM 62.2470 -153.8670 291° West 478 550 34,000  Level FlightAware
07:31PM 62.2770 -154.0490 290° West 478 550 34,000  Level FlightAware
07:31PM 62.3000 -154.1860 290° West 478 550 34,000  Level FlightAware
07:32PM 62.3310 -154.3680 290° West 478 550 34,000  Level FlightAware
07:33PM 62.3540 -154.5050 290° West 478 550 34,000  Level FlightAware
07:33PM 62.4000 -155.0333 290° West 470 541 34,000  Level Anchorage Center
07:34PM 62.4333 -155.3000 285° West 470 541 34,000  Level Anchorage Center
07:35PM 62.4667 -155.5667 285° West 470 541 34,000  Level Anchorage Center
07:36PM 62.5000 -155.8333 285° West 460 529 34,000  Level Anchorage Center
07:37PM 62.5333 -156.1000 285° West 470 541 34,000  Level Anchorage Center
07:38PM 62.5833 -156.3833 291° West 470 541 34,000  Level Anchorage Center
07:39PM 62.6167 -156.6667 284° West 480 552 34,000  Level Anchorage Center
07:40PM 62.6500 -156.9500 284° West 490 564 34,000  Level Anchorage Center
07:41PM 62.6833 -157.2333 284° West 470 541 34,000  Level Anchorage Center
07:42PM 62.7167 -157.5167 285° West 470 541 34,000  Level Anchorage Center
07:43PM 62.7500 -157.7833 285° West 470 541 34,000  Level Anchorage Center
07:44PM 62.7833 -158.0667 285° West 470 541 34,000  Level Anchorage Center
07:45PM 62.8167 -158.3333 285° West 470 541 34,000  Level Anchorage Center
07:46PM 62.8500 -158.6167 285° West 470 541 34,000  Level Anchorage Center
07:47PM 62.8833 -158.9167 284° West 480 552 34,000  Level Anchorage Center
07:48PM 62.9167 -159.1833 285° West 470 541 34,000  Level Anchorage Center
07:49PM 62.9333 -159.4667 277° West 470 541 34,000  Level Anchorage Center
07:50PM 62.9667 -159.7500 285° West 470 541 34,000  Level Anchorage Center
07:51PM 63.0000 -160.0333 285° West 470 541 34,000  Level Anchorage Center
07:52PM 63.0167 -160.3333 277° West 460 529 34,000  Level Anchorage Center
07:53PM 63.0500 -160.6000 286° West 460 529 34,000  Level Anchorage Center
07:54PM 63.0667 -160.8833 278° West 460 529 34,000  Level Anchorage Center
07:55PM 63.1000 -161.1667 285° West 460 529 34,000  Level Anchorage Center
07:56PM 63.1167 -161.4500 278° West 460 529 34,000  Level Anchorage Center
07:57PM 63.1500 -161.7333 285° West 470 541 34,000  Level Anchorage Center
07:58PM 63.1667 -162.0000 278° West 450 518 34,000  Level Anchorage Center
07:59PM 63.2000 -162.2833 285° West 450 518 34,000  Level Anchorage Center
08:00PM 63.2167 -162.5667 278° West 450 518 34,000  Level Anchorage Center
08:01PM 63.2333 -162.8333 278° West 460 529 34,000  Level Anchorage Center
08:02PM 63.2667 -163.1167 285° West 450 518 34,000  Level Anchorage Center
08:03PM 63.2833 -163.4000 278° West 460 529 34,000  Level Anchorage Center
08:04PM 63.3000 -163.6833 278° West 450 518 34,000  Level Anchorage Center
08:05PM 63.3167 -163.9500 278° West 440 506 34,000  Level Anchorage Center
08:06PM 63.3333 -164.2167 278° West 450 518 34,000  Level Anchorage Center
08:07PM 63.3500 -164.5000 278° West 450 518 34,000  Level Anchorage Center
08:08PM 63.3667 -164.7667 278° West 440 506 34,000  Level Anchorage Center
08:09PM 63.3833 -165.0333 278° West 440 506 34,000  Level Anchorage Center
08:10PM 63.4000 -165.3167 278° West 440 506 34,000  Level Anchorage Center
08:11PM 63.4167 -165.5833 278° West 440 506 34,000  Level Anchorage Center
08:12PM 63.4333 -165.8500 278° West 440 506 34,000  Level Anchorage Center
08:13PM 63.4500 -166.1833 277° West 440 506 34,000  Level Anchorage Center
08:14PM 63.4667 -166.4500 278° West 430 495 34,000  Level Anchorage Center
08:15PM 63.4833 -166.7167 278° West 440 506 34,000  Level Anchorage Center
08:16PM 63.5000 -167.0000 278° West 440 506 34,000  Level Anchorage Center
08:17PM 63.5000 -167.2667 270° West 430 495 34,000  Level Anchorage Center
08:18PM 63.5167 -167.5333 278° West 430 495 34,000  Level Anchorage Center
08:19PM 63.5333 -167.8000 278° West 440 506 34,000  Level Anchorage Center
08:20PM 63.5500 -168.0667 278° West 440 506 34,000  Level Anchorage Center
08:21PM 63.5500 -168.3500 270° West 450 518 34,000  Level Anchorage Center
08:22PM 63.5667 -168.5833 279° West 440 506 34,000  Level Anchorage Center
08:23PM 63.5667 -168.9333 270° West 450 518 34,000  Level Anchorage Center
08:24PM 63.5833 -169.2167 278° West 460 529 34,000  Level Anchorage Center
08:25PM 63.5833 -169.5000 270° West 470 541 34,000  Level Anchorage Center
08:26PM 63.6000 -169.7833 278° West 460 529 34,000  Level Anchorage Center
08:27PM 63.6000 -170.0667 270° West 460 529 34,000  Level Anchorage Center
08:28PM 63.6167 -170.3500 278° West 450 518 34,000  Level Anchorage Center
08:29PM 63.6167 -170.6000 270° West 460 529 34,000  Level Anchorage Center
08:30PM 63.6167 -170.9333 270° West 460 529 34,000  Level Anchorage Center
08:31PM 63.6333 -171.2333 277° West 460 529 34,000  Level Anchorage Center
08:32PM 63.6333 -171.5167 270° West 460 529 34,000  Level Anchorage Center
08:33PM 63.6333 -171.8000 270° West 460 529 34,000  Level Anchorage Center
08:34PM 63.6500 -172.1000 277° West 460 529 34,000  Level Anchorage Center
08:35PM 63.6500 -172.4000 270° West 470 541 34,000  Level Anchorage Center
08:37PM 63.6500 -172.6833 270° West 470 541 34,000  Level Anchorage Center
08:38PM 63.6500 -172.9833 270° West 470 541 34,000  Level Anchorage Center
08:43PM 63.5720 -174.5470 270° West 476 548 34,000  Level FlightAware
08:44PM 63.5590 -174.7510 262° West 476 548 34,000  Level FlightAware
08:44PM 63.5470 -174.9390 262° West 476 548 34,000  Level FlightAware
08:47PM 63.5024 -175.5809 261° West  Level FlightAware Approximate
08:48PM 63.4807 -175.8788 261° West  Level FlightAware Approximate
08:48PM 63.4700 -176.0130 261° West 478 550 34,000  Level FlightAware
08:49PM 63.4550 -176.2180 261° West 477 549 34,000  Level FlightAware
08:49PM 63.4400 -176.4080 260° West 479 551 34,000  Level FlightAware
08:50PM 63.4240 -176.6160 260° West 479 551 34,000  Level FlightAware
08:51PM 63.4070 -176.8200 260° West 479 551 34,000  Level FlightAware
08:52PM 63.3850 -177.0900 260° West 480 552 34,000  Level FlightAware
08:52PM 63.3700 -177.2660 259° West 481 554 34,000  Level FlightAware
08:53PM 63.3510 -177.4920 259° West 479 551 34,000  Level FlightAware
08:54PM 63.3370 -177.6530 259° West 478 550 34,000  Level FlightAware
08:54PM 63.3180 -177.8680 259° West 480 552 34,000  Level FlightAware
08:55PM 63.2980 -178.0990 259° West 482 555 34,000  Level FlightAware
08:56PM 63.2780 -178.3090 258° West 482 555 34,000  Level FlightAware
08:57PM 63.2610 -178.4930 258° West 481 554 34,000  Level FlightAware
08:57PM 63.2430 -178.6870 258° West 483 556 34,000  Level FlightAware
08:58PM 63.2220 -178.9080 258° West 485 558 34,000  Level FlightAware
08:59PM 63.2010 -179.1180 258° West 487 560 34,000  Level FlightAware
08:59PM 63.1830 -179.3040 258° West 486 559 34,000  Level FlightAware
09:00PM 63.1630 -179.5040 258° West 485 558 34,000  Level FlightAware
09:01PM 63.1380 -179.7460 257° West 486 559 34,000  Level FlightAware
09:02PM 63.1120 -179.9950 257° West 487 560 34,000  Level FlightAware
09:02PM 63.0910 179.8090 257° West 488 562 34,000  Level FlightAware
09:03PM 63.0700 179.6230 256° West 488 562 34,000  Level FlightAware
09:04PM 63.0440 179.3950 256° West 488 562 34,000  Level FlightAware
09:04PM 63.0280 179.2590 256° West 487 560 34,000  Level FlightAware
09:06PM 62.9730 178.8680 253° West 486 559 34,000  Level FlightAware
09:08PM 62.8810 178.2240 253° West 483 556 34,000  Level FlightAware
09:09PM 62.8570 178.0620 252° West 486 559 34,000  Level FlightAware
09:10PM 62.8270 177.8540 253° West 488 562 34,000  Level FlightAware
09:10PM 62.7970 177.6530 252° West 490 564 34,000  Level FlightAware
09:11PM 62.7650 177.4430 252° West 489 563 34,000  Level FlightAware
09:12PM 62.7370 177.2620 251° West 487 560 34,000  Level FlightAware
09:12PM 62.7080 177.0690 252° West 488 562 34,000  Level FlightAware
09:13PM 62.6760 176.8670 251° West 488 562 34,000  Level FlightAware
09:14PM 62.6450 176.6720 251° West 489 563 34,000  Level FlightAware
09:15PM 62.6110 176.4530 251° West 488 562 34,000  Level FlightAware
09:15PM 62.5790 176.2590 250° West 489 563 34,000  Level FlightAware
09:16PM 62.5450 176.0500 251° West 491 565 34,000  Level FlightAware
09:17PM 62.5140 175.8650 250° West 490 564 34,000  Level FlightAware
09:17PM 62.4830 175.6780 250° West 493 567 34,000  Level FlightAware
09:18PM 62.4530 175.4970 250° West 491 565 34,000  Level FlightAware
09:19PM 62.4230 175.3250 249° West 490 564 34,000  Level FlightAware
09:19PM 62.3930 175.1450 250° West 487 560 34,000  Level FlightAware
09:21PM 62.3460 174.8770 249° West 487 560 34,000  Level FlightAware
09:21PM 62.3090 174.6640 250° West 487 560 34,000  Level FlightAware
09:22PM 62.2770 174.4850 249° West 486 559 34,000  Level FlightAware
09:23PM 62.2510 174.3420 249° West 486 559 34,000  Level FlightAware
09:23PM 62.2350 174.2510 249° West 484 557 34,000  Level FlightAware
09:26PM 62.1268 173.6806 248° West  Level FlightAware Approximate
09:27PM 62.0752 173.4146 248° West  Level FlightAware Approximate
09:28PM 62.0232 173.1495 247° West  Level FlightAware Approximate
09:29PM 61.9706 172.8854 247° West  Level FlightAware Approximate
09:29PM 61.9780 172.8880 247° West 485 558 34,000  Level FlightAware
09:29PM 61.9510 172.7500 247° West 485 558 34,000  Level FlightAware
09:30PM 61.9240 172.6150 247° West 485 558 34,000  Level FlightAware
09:31PM 61.8870 172.4330 247° West 485 558 34,000  Level FlightAware
09:31PM 61.8610 172.2990 248° West 485 558 34,000  Level FlightAware
09:32PM 61.8250 172.1200 247° West 485 558 34,000  Level FlightAware
09:33PM 61.7970 171.9830 247° West 485 558 34,000  Level FlightAware
09:34PM 61.7610 171.8040 247° West 485 558 34,000  Level FlightAware
09:34PM 61.7350 171.6710 248° West 485 558 34,000  Level FlightAware
09:35PM 61.7000 171.5000 247° West 485 558 34,000  Level FlightAware
09:35PM 61.6730 171.3630 247° West 485 558 34,000  Level FlightAware
09:36PM 61.6350 171.1790 247° West 485 558 34,000  Level FlightAware
09:37PM 61.6080 171.0420 248° West 485 558 34,000  Level FlightAware
09:38PM 61.5730 170.8690 247° West 485 558 34,000  Level FlightAware
09:40PM 61.4699 170.4140 245° Southwest  Level FlightAware Approximate
09:41PM 61.4114 170.1601 244° Southwest  Level FlightAware Approximate
09:42PM 61.3525 169.9073 244° Southwest  Level FlightAware Approximate
09:43PM 61.2931 169.6553 244° Southwest  Level FlightAware Approximate
09:44PM 61.2332 169.4044 244° Southwest  Level FlightAware Approximate
09:45PM 61.1728 169.1543 243° Southwest  Level FlightAware Approximate
09:46PM 61.1120 168.9053 243° Southwest  Level FlightAware Approximate
09:47PM 61.0508 168.6572 243° Southwest  Level FlightAware Approximate
09:48PM 60.9891 168.4101 243° Southwest  Level FlightAware Approximate
09:49PM 60.9269 168.1639 243° Southwest  Level FlightAware Approximate
09:50PM 60.8643 167.9187 242° Southwest  Level FlightAware Approximate
09:51PM 60.8013 167.6745 242° Southwest  Level FlightAware Approximate
09:52PM 60.7378 167.4312 242° Southwest  Level FlightAware Approximate
09:53PM 60.6738 167.1888 242° Southwest  Level FlightAware Approximate
09:54PM 60.6095 166.9475 242° Southwest  Level FlightAware Approximate
09:55PM 60.5447 166.7071 241° Southwest  Level FlightAware Approximate
09:56PM 60.4794 166.4677 241° Southwest  Level FlightAware Approximate
09:57PM 60.4138 166.2292 241° Southwest  Level FlightAware Approximate
09:58PM 60.3469 165.9922 231° Southwest  Level FlightAware Approximate
09:59PM 60.2627 165.7799 231° Southwest  Level FlightAware Approximate
10:00PM 60.1782 165.5688 231° Southwest  Level FlightAware Approximate
10:01PM 60.0934 165.3587 231° Southwest  Level FlightAware Approximate
10:02PM 60.0082 165.1497 231° Southwest  Level FlightAware Approximate
10:03PM 59.9226 164.9417 231° Southwest  Level FlightAware Approximate
10:04PM 59.8368 164.7349 231° Southwest  Level FlightAware Approximate
10:05PM 59.7506 164.5291 230° Southwest  Level FlightAware Approximate
10:06PM 59.6642 164.3243 230° Southwest  Level FlightAware Approximate
10:07PM 59.5796 164.1259 230° Southwest  Level FlightAware Approximate
10:08PM 59.4948 163.9285 230° Southwest  Level FlightAware Approximate
10:09PM 59.4096 163.7321 230° Southwest  Level FlightAware Approximate
10:10PM 59.3242 163.5367 229° Southwest  Level FlightAware Approximate
10:11PM 59.2384 163.3422 229° Southwest  Level FlightAware Approximate
10:12PM 59.1524 163.1487 229° Southwest  Level FlightAware Approximate
10:13PM 59.0661 162.9562 229° Southwest  Level FlightAware Approximate
10:14PM 58.9795 162.7647 229° Southwest  Level FlightAware Approximate
10:15PM 58.8927 162.5741 229° Southwest  Level FlightAware Approximate
10:16PM 58.8055 162.3845 228° Southwest  Level FlightAware Approximate
10:17PM 58.7181 162.1958 228° Southwest  Level FlightAware Approximate
10:18PM 58.6304 162.0081 228° Southwest  Level FlightAware Approximate
10:19PM 58.5424 161.8213 228° Southwest  Level FlightAware Approximate
10:20PM 58.4542 161.6355 228° Southwest  Level FlightAware Approximate
10:21PM 58.3657 161.4506 228° Southwest  Level FlightAware Approximate
10:22PM 58.2769 161.2666 228° Southwest  Level FlightAware Approximate
10:23PM 58.1879 161.0835 227° Southwest  Level FlightAware Approximate
10:24PM 58.0986 160.9014 227° Southwest  Level FlightAware Approximate
10:25PM 58.0091 160.7202 227° Southwest  Level FlightAware Approximate
10:26PM 57.9193 160.5398 227° Southwest  Level FlightAware Approximate
10:27PM 57.8292 160.3604 227° Southwest  Level FlightAware Approximate
10:28PM 57.7389 160.1819 227° Southwest  Level FlightAware Approximate
10:29PM 57.6483 160.0042 226° Southwest  Level FlightAware Approximate
10:30PM 57.5575 159.8275 226° Southwest  Level FlightAware Approximate
10:31PM 57.4665 159.6516 226° Southwest  Level FlightAware Approximate
10:32PM 57.3752 159.4766 226° Southwest  Level FlightAware Approximate
10:33PM 57.2836 159.3025 226° Southwest  Level FlightAware Approximate
10:34PM 57.1918 159.1292 226° Southwest  Level FlightAware Approximate
10:35PM 57.0998 158.9568 226° Southwest  Level FlightAware Approximate
10:36PM 57.0076 158.7853 225° Southwest  Level FlightAware Approximate
10:37PM 56.9151 158.6146 225° Southwest  Level FlightAware Approximate
10:38PM 56.8223 158.4447 225° Southwest  Level FlightAware Approximate
10:39PM 56.7294 158.2757 225° Southwest  Level FlightAware Approximate
10:40PM 56.6362 158.1075 225° Southwest  Level FlightAware Approximate
10:41PM 56.5428 157.9402 225° Southwest  Level FlightAware Approximate
10:42PM 56.4492 157.7736 225° Southwest  Level FlightAware Approximate
10:43PM 56.3553 157.6079 224° Southwest  Level FlightAware Approximate
10:44PM 56.2613 157.4430 224° Southwest  Level FlightAware Approximate
10:45PM 56.1670 157.2790 224° Southwest  Level FlightAware Approximate
10:46PM 56.0725 157.1157 224° Southwest  Level FlightAware Approximate
10:47PM 55.9778 156.9532 224° Southwest  Level FlightAware Approximate
10:48PM 55.8828 156.7915 224° Southwest  Level FlightAware Approximate
10:49PM 55.7877 156.6306 224° Southwest  Level FlightAware Approximate
10:50PM 55.6922 156.4707 223° Southwest  Level FlightAware Approximate
10:51PM 55.5954 156.3138 223° Southwest  Level FlightAware Approximate
10:52PM 55.4984 156.1576 222° Southwest  Level FlightAware Approximate
10:53PM 55.4028 155.9992 223° Southwest  Level FlightAware Approximate
10:54PM 55.3072 155.8412 223° Southwest  Level FlightAware Approximate
10:55PM 55.2114 155.6838 223° Southwest  Level FlightAware Approximate
10:56PM 55.1154 155.5273 223° Southwest  Level FlightAware Approximate
10:57PM 55.0192 155.3715 223° Southwest  Level FlightAware Approximate
10:58PM 54.9222 155.2174 219° Southwest  Level FlightAware Approximate
10:59PM 54.8209 155.0726 219° Southwest  Level FlightAware Approximate
11:00PM 54.7232 154.9209 222° Southwest  Level FlightAware Approximate
11:01PM 54.6254 154.7694 222° Southwest  Level FlightAware Approximate
11:02PM 54.5275 154.6188 222° Southwest  Level FlightAware Approximate
11:03PM 54.4294 154.4688 222° Southwest  Level FlightAware Approximate
11:04PM 54.3311 154.3196 222° Southwest  Level FlightAware Approximate
11:05PM 54.2327 154.1710 221° Southwest  Level FlightAware Approximate
11:06PM 54.1340 154.0232 221° Southwest  Level FlightAware Approximate
11:07PM 54.0352 153.8761 221° Southwest  Level FlightAware Approximate
11:08PM 53.9362 153.7297 221° Southwest  Level FlightAware Approximate
11:09PM 53.8370 153.5840 221° Southwest  Level FlightAware Approximate
11:10PM 53.7376 153.4389 221° Southwest  Level FlightAware Approximate
11:11PM 53.6381 153.2946 221° Southwest  Level FlightAware Approximate
11:12PM 53.5384 153.1509 221° Southwest  Level FlightAware Approximate
11:13PM 53.4385 153.0079 220° Southwest  Level FlightAware Approximate
11:14PM 53.3384 152.8656 220° Southwest  Level FlightAware Approximate
11:15PM 53.2382 152.7239 220° Southwest  Level FlightAware Approximate
11:16PM 53.1378 152.5829 220° Southwest  Level FlightAware Approximate
11:17PM 53.0373 152.4425 220° Southwest  Level FlightAware Approximate
11:18PM 52.9366 152.3027 220° Southwest  Level FlightAware Approximate
11:19PM 52.8358 152.1636 220° Southwest  Level FlightAware Approximate
11:20PM 52.7348 152.0251 220° Southwest  Level FlightAware Approximate
11:21PM 52.6336 151.8872 220° Southwest  Level FlightAware Approximate
11:22PM 52.5323 151.7500 220° Southwest  Level FlightAware Approximate
11:23PM 52.4308 151.6134 219° Southwest  Level FlightAware Approximate
11:24PM 52.3292 151.4775 219° Southwest  Level FlightAware Approximate
11:25PM 52.2274 151.3422 219° Southwest  Level FlightAware Approximate
11:26PM 52.1248 151.2088 219° Southwest  Level FlightAware Approximate
11:27PM 52.0221 151.0760 219° Southwest  Level FlightAware Approximate
11:28PM 51.9192 150.9438 218° Southwest  Level FlightAware Approximate
11:29PM 51.8162 150.8121 218° Southwest  Level FlightAware Approximate
11:30PM 51.7131 150.6811 218° Southwest  Level FlightAware Approximate
11:31PM 51.6098 150.5507 218° Southwest  Level FlightAware Approximate
11:32PM 51.5063 150.4209 218° Southwest  Level FlightAware Approximate
11:33PM 51.4027 150.2917 218° Southwest  Level FlightAware Approximate
11:34PM 51.2990 150.1630 218° Southwest  Level FlightAware Approximate
11:35PM 51.1951 150.0350 218° Southwest  Level FlightAware Approximate
11:36PM 51.0915 149.9067 218° Southwest  Level FlightAware Approximate
11:37PM 50.9879 149.7787 218° Southwest  Level FlightAware Approximate
11:38PM 50.8841 149.6512 218° Southwest  Level FlightAware Approximate
11:39PM 50.7802 149.5244 218° Southwest  Level FlightAware Approximate
11:40PM 50.6762 149.3981 218° Southwest  Level FlightAware Approximate
11:41PM 50.5720 149.2723 217° Southwest  Level FlightAware Approximate
11:42PM 50.4677 149.1471 217° Southwest  Level FlightAware Approximate
11:43PM 50.3633 149.0225 217° Southwest  Level FlightAware Approximate
11:44PM 50.2587 148.8984 217° Southwest  Level FlightAware Approximate
11:45PM 50.1540 148.7748 217° Southwest  Level FlightAware Approximate
11:46PM 50.0492 148.6518 217° Southwest  Level FlightAware Approximate
11:47PM 49.9442 148.5293 217° Southwest  Level FlightAware Approximate
11:48PM 49.8389 148.4078 217° Southwest  Level FlightAware Approximate
11:49PM 49.7333 148.2867 217° Southwest  Level FlightAware Approximate
11:50PM 49.6276 148.1661 216° Southwest  Level FlightAware Approximate
11:51PM 49.5218 148.0460 216° Southwest  Level FlightAware Approximate
11:52PM 49.4158 147.9265 216° Southwest  Level FlightAware Approximate
11:53PM 49.3097 147.8074 216° Southwest  Level FlightAware Approximate
11:54PM 49.2035 147.6889 216° Southwest  Level FlightAware Approximate
11:55PM 49.0971 147.5708 216° Southwest  Level FlightAware Approximate
11:56PM 48.9907 147.4533 216° Southwest  Level FlightAware Approximate
11:57PM 48.8841 147.3363 216° Southwest  Level FlightAware Approximate
11:58PM 48.7774 147.2198 216° Southwest  Level FlightAware Approximate
11:59PM 48.6706 147.1038 216° Southwest  Level FlightAware Approximate
12:00AM 48.5636 146.9882 216° Southwest  Level FlightAware Approximate
12:01AM 48.4566 146.8732 215° Southwest  Level FlightAware Approximate
12:02AM 48.3494 146.7586 215° Southwest  Level FlightAware Approximate
12:03AM 48.2422 146.6445 215° Southwest  Level FlightAware Approximate
12:04AM 48.1348 146.5309 215° Southwest  Level FlightAware Approximate
12:05AM 48.0273 146.4178 215° Southwest  Level FlightAware Approximate
12:06AM 47.9197 146.3051 215° Southwest  Level FlightAware Approximate
12:07AM 47.8120 146.1929 215° Southwest  Level FlightAware Approximate
12:08AM 47.7042 146.0812 215° Southwest  Level FlightAware Approximate
12:09AM 47.5962 145.9700 215° Southwest  Level FlightAware Approximate
12:10AM 47.4882 145.8591 215° Southwest  Level FlightAware Approximate
12:11AM 47.3800 145.7488 215° Southwest  Level FlightAware Approximate
12:11AM 45.9000 144.3150 215° Southwest 526 605 34,000  Level FlightAware
12:12AM 47.2718 145.6389 215° Southwest  Level FlightAware Approximate
12:12AM 45.7670 144.1940 212° Southwest 519 597 34,000  Level FlightAware
12:12AM 45.6840 144.1170 213° Southwest 519 597 34,000  Level FlightAware
12:13AM 45.5930 144.0340 213° Southwest 518 596 34,000  Level FlightAware
12:14AM 45.5100 143.9600 212° Southwest 514 592 34,000  Level FlightAware
12:14AM 45.4320 143.8880 213° Southwest 518 596 34,000  Level FlightAware
12:17AM 45.1981 143.6797 212° Southwest  Level FlightAware Approximate
12:18AM 45.0848 143.5854 210° Southwest  Level FlightAware Approximate
12:18AM 45.0080 143.5230 210° Southwest 501 577 34,000  Level FlightAware
12:19AM 44.9712 143.4920 210° Southwest  Level FlightAware Approximate
12:22AM 44.5753 143.3542 196° South  Level Estimated
12:22AM 44.5110 143.1210 196° South 483 556 34,000  Level FlightAware
12:23AM 44.4230 143.0510 210° Southwest 482 555 34,000 480 Level FlightAware
12:24AM 44.3350 142.9800 210° Southwest 482 555 34,700 1,080 Climbing FlightAware
12:24AM 44.2650 142.9250 209° Southwest 488 562 35,500 960 Climbing FlightAware
12:25AM 44.1770 142.8550 210° Southwest 483 556 36,000 300 Climbing FlightAware
12:26AM 44.0920 142.7880 210° Southwest 481 554 36,000  Level FlightAware
12:26AM 44.0040 142.7200 209° Southwest 490 564 36,000  Level FlightAware
12:27AM 43.9080 142.6650 202° Southwest 491 565 36,000  Level FlightAware
12:28AM 43.8220 142.6240 199° South 496 571 36,000  Level FlightAware
12:28AM 43.7350 142.5840 198° South 496 571 36,000  Level FlightAware
12:29AM 43.6530 142.5460 199° South 494 568 36,000  Level FlightAware
12:30AM 43.5520 142.4980 199° South 492 566 36,000  Level FlightAware
12:31AM 43.4660 142.4590 198° South 488 562 36,000  Level FlightAware
12:31AM 43.3810 142.4190 199° South 488 562 36,000  Level FlightAware
12:32AM 43.2840 142.3740 199° South 488 562 36,000  Level FlightAware
12:33AM 43.1990 142.3350 198° South 488 562 36,000  Level FlightAware
12:33AM 43.1080 142.2930 199° South 476 548 36,000  Level FlightAware
12:34AM 43.0250 142.2560 198° South 475 547 36,000  Level FlightAware
12:35AM 42.9360 142.2150 199° South 473 544 36,000  Level FlightAware
12:36AM 42.7910 142.1490 198° South 476 548 36,000  Level FlightAware
12:37AM 42.6980 142.1070 198° South 471 542 36,000  Level FlightAware
12:38AM 42.5820 142.0550 198° South 457 526 36,000  Level FlightAware
12:38AM 42.4950 142.0230 195° South 473 544 36,000  Level FlightAware
12:39AM 42.4000 141.9960 192° South 476 548 36,000  Level FlightAware
12:40AM 42.3130 141.9770 189° South 474 545 36,000  Level FlightAware
12:41AM 42.1880 141.9520 188° South 473 544 36,000  Level FlightAware
12:41AM 42.1030 141.9350 188° South 484 557 36,000  Level FlightAware
12:42AM 42.0100 141.9170 188° South 474 545 36,000  Level FlightAware
12:43AM 41.9100 141.8980 188° South 471 542 36,000  Level FlightAware
12:43AM 41.8180 141.8800 188° South 471 542 36,000  Level FlightAware
12:45AM 41.5470 141.8270 177° South 475 547 36,000  Level FlightAware
12:46AM 41.5435 141.8063 177° South  Level Estimated
12:47AM 41.3860 141.7960 188° South 474 545 36,000  Level FlightAware
12:47AM 41.2840 141.7760 188° South 474 545 36,000  Level FlightAware
12:48AM 41.1990 141.7600 188° South 474 545 36,000  Level FlightAware
12:49AM 41.1110 141.7430 188° South 473 544 36,000  Level FlightAware
12:49AM 41.0120 141.7240 188° South 473 544 36,000  Level FlightAware
12:50AM 40.9190 141.7070 188° South 474 545 36,000  Level FlightAware
12:51AM 40.8340 141.6900 189° South 483 556 36,000  Level FlightAware
12:52AM 40.7410 141.6730 188° South 484 557 36,000  Level FlightAware
12:52AM 40.6410 141.6540 188° South 483 556 36,000  Level FlightAware
12:53AM 40.5420 141.6350 188° South 484 557 36,000  Level FlightAware
12:54AM 40.4670 141.6210 188° South 483 556 36,000  Level FlightAware
12:54AM 40.3780 141.6040 188° South 474 545 36,000  Level FlightAware
12:55AM 40.2820 141.5870 188° South 470 541 36,000  Level FlightAware
12:56AM 40.1600 141.5640 188° South 469 540 36,000  Level FlightAware
12:57AM 40.0550 141.5440 188° South 468 539 36,000  Level FlightAware
12:57AM 39.9620 141.5270 188° South 467 537 36,000  Level FlightAware
12:58AM 39.8710 141.5100 188° South 474 545 36,000  Level FlightAware
12:59AM 39.7930 141.4960 188° South 474 545 36,000  Level FlightAware
12:59AM 39.6980 141.4780 188° South 467 537 36,000  Level FlightAware
01:01AM 39.5310 141.4480 188° South 472 543 36,000  Level FlightAware
01:01AM 39.4550 141.4340 188° South 469 540 36,000  Level FlightAware
01:02AM 39.3500 141.4150 188° South 468 539 36,000  Level FlightAware
01:03AM 39.2570 141.3980 188° South 457 526 36,000  Level FlightAware
01:03AM 39.1720 141.3830 188° South 457 526 36,000  Level FlightAware
01:04AM 39.0840 141.3670 188° South 456 525 36,000  Level FlightAware
01:05AM 39.0020 141.3520 188° South 455 524 36,000  Level FlightAware
01:05AM 38.9210 141.3370 188° South 452 520 36,000  Level FlightAware
01:06AM 38.8030 141.3160 188° South 454 522 36,000  Level FlightAware
01:07AM 38.7010 141.2980 188° South 453 521 36,000  Level FlightAware
01:08AM 38.6180 141.2830 188° South 453 521 36,000  Level FlightAware
01:09AM 38.5240 141.2670 188° South 451 519 36,000  Level FlightAware
01:09AM 38.4430 141.2520 188° South 452 520 36,000  Level FlightAware
01:10AM 38.3570 141.2370 188° South 452 520 36,000  Level FlightAware
01:11AM 38.2090 141.2110 188° South 452 520 36,000  Level FlightAware
01:12AM 38.1150 141.1940 188° South 441 507 36,000 -180 Level FlightAware
01:13AM 38.0340 141.1800 188° South 438 504 35,800 -840 Descending FlightAware
01:13AM 37.9520 141.1650 188° South 443 510 34,900 -1,320 Descending FlightAware
01:14AM 37.8740 141.1390 195° South 423 487 34,100 -780 Descending FlightAware
01:14AM 37.8170 141.1160 198° South 426 490 34,000 -780 Descending FlightAware
01:16AM 37.6660 141.0560 197° South 468 539 32,600 -1,500 Descending FlightAware
01:17AM 37.5330 141.0040 197° South 452 520 30,500 -2,220 Descending FlightAware
01:17AM 37.4550 140.9740 197° South 439 505 29,200 -1,920 Descending FlightAware
01:18AM 37.3670 140.9400 197° South 436 502 27,800 -1,920 Descending FlightAware
01:19AM 37.2880 140.9090 197° South 441 507 26,500 -1,920 Descending FlightAware
01:20AM 37.1910 140.8710 197° South 441 507 25,000 -1,860 Descending FlightAware
01:20AM 37.1040 140.8380 197° South 421 484 23,600 -1,860 Descending FlightAware
01:21AM 37.0290 140.8090 197° South 419 482 22,400 -1,800 Descending FlightAware
01:22AM 36.9450 140.7760 197° South 418 481 21,100 -1,800 Descending FlightAware
01:22AM 36.8710 140.7470 197° South 420 483 19,900 -1,860 Descending FlightAware
01:23AM 36.7890 140.7160 197° South 404 465 18,500 -1,800 Descending FlightAware
01:24AM 36.7190 140.6890 197° South 386 444 17,400 -1,560 Descending FlightAware
01:25AM 36.6590 140.6660 197° South 390 449 16,500 -1,560 Descending FlightAware
01:25AM 36.5640 140.6300 197° South 372 428 15,100 -1,020 Descending FlightAware
01:26AM 36.4980 140.6050 197° South 369 425 15,000 -480 Descending FlightAware
01:27AM 36.4320 140.5800 197° South 371 427 14,500 -660 Descending FlightAware
01:27AM 36.3570 140.5520 197° South 373 429 14,100 -720 Descending FlightAware
01:28AM 36.2900 140.5330 193° South 361 415 13,500 -1,440 Descending FlightAware
01:29AM 36.2170 140.5150 191° South 341 392 12,100 -1,800 Descending FlightAware
01:29AM 36.1630 140.5020 191° South 325 374 11,100 -1,200 Descending FlightAware
01:30AM 36.1000 140.4870 191° South 282 325 10,500 -1,380 Descending FlightAware
01:31AM 36.0680 140.4790 191° South 277 319 9,500 -2,280 Descending FlightAware
01:31AM 36.0390 140.4720 191° South 278 320 8,600 -2,400 Descending FlightAware
01:31AM 36.0090 140.4590 199° South 274 315 7,700 -2,220 Descending FlightAware
01:32AM 35.9920 140.4310 233° Southwest 268 308 6,800 -2,400 Descending FlightAware
01:32AM 35.9830 140.3930 254° West 270 311 5,700 -2,580 Descending FlightAware
01:33AM 35.9740 140.3450 257° West 263 303 4,500 -2,340 Descending FlightAware
01:33AM 35.9650 140.3010 256° West 265 305 3,300 -1,740 Descending FlightAware
01:34AM 35.9500 140.2710 238° Southwest 229 264 2,900 -660 Descending FlightAware
01:34AM 35.9380 140.2640 205° Southwest 203 234 2,900  Level FlightAware
01:35AM 35.8960 140.2800 163° South 158 182 2,900 -300 Level FlightAware
01:35AM 35.8770 140.2940 149° Southeast 158 182 2,500 -780 Descending FlightAware
01:36AM 35.8630 140.3040 150° Southeast 157 181 2,200 -900 Descending FlightAware
01:36AM 35.8510 140.3130 149° Southeast 154 177 1,900 -840 Descending FlightAware
01:37AM 35.8270 140.3300 150° Southeast 147 169 1,400 -720 Descending FlightAware
01:37AM 35.8170 140.3380 147° Southeast 136 157 1,200 -540 Descending FlightAware
01:40AM 35.7647 140.3864 253° West  Level Estimated
01:41AM 35.7647 140.3864 253° West  Level Estimated
01:42AM 35.7647 140.3864 253° West  Level Estimated
01:43AM 35.7647 140.3864 253° West  Level Estimated
01:44AM 35.7647 140.3864 253° West  Level Estimated
01:45AM 35.7647 140.3864 253° West  Level Estimated
01:46AM 35.7647 140.3864 253° West  Level Estimated
01:47AM 35.7647 140.3864 253° West  Level Estimated
01:48AM 35.7647 140.3864 253° West  Level Estimated
01:49AM 35.7647 140.3864 253° West  Level Estimated
01:50AM 35.7647 140.3864 253° West  Level Estimated